EGLF

Farnborough Airport

Farnborough, United Kingdom
METAR EGLF 241150Z 06014KT CAVOK 04/M02 Q1021
Observed Flight Rules
Feb-24 @ 11:50 UTC (32 minutes ago) Visual Flight Rules
Wind Visibility Clouds
60° at 14 knots 10,000+ meters
  • Clear skies
Temperatures Readings
Current 4°C / 39°F
Dewpoint -2°C / 28°F
Humidity 65%
Altimeter 30.15" Hg
Pressure 1021 hPa
Elevation 65
METAR EGLF 241150Z 06014KT CAVOK 04/M02 Q1021
Observed Flight Rules
Feb-24 @ 11:50 UTC
(32 minutes ago)
VFR
Wind Visibility
60° at 14 knots 10,000+ meters
Clouds
  • Clear skies
Temperature Dewpoint
4°C / 39°F -2°C / 28°F
Humidity Altimeter Pressure
65% 30.15" Hg 1021 hPa